createdAt,value
2023-05-14T00:00:35.689Z,11.64
2023-05-14T00:01:36.407Z,11.66
2023-05-14T00:02:37.219Z,11.64
2023-05-14T00:03:38.116Z,11.64
2023-05-14T00:04:38.951Z,11.64
2023-05-14T00:05:39.641Z,11.64
2023-05-14T00:06:40.377Z,11.64
2023-05-14T00:07:41.087Z,11.67
2023-05-14T00:08:41.863Z,11.59
2023-05-14T00:09:42.568Z,11.60
2023-05-14T00:10:43.276Z,11.62
2023-05-14T00:11:44.026Z,11.59
2023-05-14T00:12:44.745Z,11.59
2023-05-14T00:13:45.446Z,11.60
2023-05-14T00:14:46.266Z,11.56
2023-05-14T00:15:47.007Z,11.53
2023-05-14T00:16:47.782Z,11.49
2023-05-14T00:17:48.542Z,11.53
2023-05-14T00:18:49.273Z,11.51
2023-05-14T00:19:50.059Z,11.49
2023-05-14T00:20:50.771Z,11.48
2023-05-14T00:21:51.474Z,11.51
2023-05-14T00:22:52.236Z,11.48
2023-05-14T00:23:52.943Z,11.48
2023-05-14T00:24:53.653Z,11.45
2023-05-14T00:25:54.354Z,11.44
2023-05-14T00:26:55.064Z,11.45
2023-05-14T00:27:55.771Z,11.45
2023-05-14T00:28:56.474Z,11.49
2023-05-14T00:29:57.188Z,11.51
2023-05-14T00:30:58.006Z,11.48
2023-05-14T00:31:58.692Z,11.49
2023-05-14T00:32:59.438Z,11.49
2023-05-14T00:34:00.219Z,11.51
2023-05-14T00:35:01.216Z,11.48
2023-05-14T00:36:01.926Z,11.48
2023-05-14T00:37:02.610Z,11.48
2023-05-14T00:38:03.301Z,11.45
2023-05-14T00:39:04.007Z,11.46
2023-05-14T00:40:04.717Z,11.42
2023-05-14T00:41:05.420Z,11.41
2023-05-14T00:42:06.115Z,11.42
2023-05-14T00:43:06.828Z,11.38
2023-05-14T00:44:07.570Z,11.38
2023-05-14T00:45:08.257Z,11.38
2023-05-14T00:46:08.989Z,11.35
2023-05-14T00:47:09.725Z,11.38
2023-05-14T00:48:10.452Z,11.33
2023-05-14T00:49:11.190Z,11.31
2023-05-14T00:50:11.920Z,11.31
2023-05-14T00:51:12.609Z,11.30
2023-05-14T00:52:13.321Z,11.30
2023-05-14T00:53:14.042Z,11.26
2023-05-14T00:54:14.742Z,11.26
2023-05-14T00:55:15.448Z,11.26
2023-05-14T00:56:16.170Z,11.24
2023-05-14T00:57:16.863Z,11.24
2023-05-14T00:58:17.596Z,11.24
2023-05-14T00:59:18.304Z,11.23
2023-05-14T01:00:19.012Z,11.24
2023-05-14T01:01:19.789Z,11.23
2023-05-14T01:02:20.525Z,11.21
2023-05-14T01:03:21.304Z,11.21
2023-05-14T01:04:22.069Z,11.19
2023-05-14T01:05:22.777Z,11.17
2023-05-14T01:06:23.475Z,11.13
2023-05-14T01:07:24.179Z,11.16
2023-05-14T01:08:24.886Z,11.11
2023-05-14T01:09:25.604Z,11.13
2023-05-14T01:10:26.559Z,11.11
2023-05-14T01:11:27.384Z,11.12
2023-05-14T01:12:28.093Z,11.11
2023-05-14T01:13:28.812Z,11.09
2023-05-14T01:14:29.513Z,11.11
2023-05-14T01:15:30.211Z,11.08
2023-05-14T01:16:30.965Z,11.05
2023-05-14T01:17:31.772Z,11.06
2023-05-14T01:18:32.532Z,11.08
2023-05-14T01:19:33.234Z,11.05
2023-05-14T01:20:34.018Z,11.05
2023-05-14T01:21:34.725Z,10.99
2023-05-14T01:22:35.443Z,10.99
2023-05-14T01:23:36.147Z,11.02
2023-05-14T01:24:36.874Z,11.01
2023-05-14T01:25:37.585Z,10.99
2023-05-14T01:26:38.291Z,10.99
2023-05-14T01:27:38.975Z,10.98
2023-05-14T01:28:39.670Z,10.99
2023-05-14T01:29:40.366Z,10.95
2023-05-14T01:30:41.185Z,10.94
2023-05-14T01:31:41.924Z,10.93
2023-05-14T01:32:42.673Z,10.91
2023-05-14T01:33:43.336Z,10.90
2023-05-14T01:34:44.039Z,10.91
2023-05-14T01:35:44.765Z,10.90
2023-05-14T01:36:45.472Z,10.91
2023-05-14T01:37:46.189Z,10.90
2023-05-14T01:38:46.878Z,10.90
2023-05-14T01:39:47.638Z,10.88
2023-05-14T01:40:48.332Z,10.88
2023-05-14T01:41:49.054Z,10.90
2023-05-14T01:42:49.798Z,10.87
2023-05-14T01:43:50.533Z,10.88
2023-05-14T01:44:51.232Z,10.84
2023-05-14T01:45:51.962Z,10.86
2023-05-14T01:46:52.678Z,10.83
2023-05-14T01:47:53.390Z,10.86
2023-05-14T01:48:54.108Z,10.84
2023-05-14T01:49:54.800Z,10.81
2023-05-14T01:50:55.512Z,10.83
2023-05-14T01:51:56.196Z,10.83
2023-05-14T01:52:57.030Z,10.81
2023-05-14T01:53:57.718Z,10.80
2023-05-14T01:54:58.440Z,10.80
2023-05-14T01:55:59.133Z,10.78
2023-05-14T01:56:59.853Z,10.75
2023-05-14T01:58:00.587Z,10.76
2023-05-14T01:59:01.321Z,10.78
2023-05-14T02:00:02.015Z,10.78
2023-05-14T02:01:02.736Z,10.76
2023-05-14T02:02:03.415Z,10.78
2023-05-14T02:03:04.189Z,10.76
2023-05-14T02:04:05.092Z,10.75
2023-05-14T02:05:07.010Z,10.75
2023-05-14T02:06:06.722Z,10.75
2023-05-14T02:07:07.425Z,10.73
2023-05-14T02:08:08.148Z,10.73
2023-05-14T02:09:08.845Z,10.70
2023-05-14T02:10:09.567Z,10.69
2023-05-14T02:11:10.264Z,10.66
2023-05-14T02:12:12.674Z,10.70
2023-05-14T02:13:11.627Z,10.68
2023-05-14T02:14:12.347Z,10.65
2023-05-14T02:15:13.067Z,10.62
2023-05-14T02:16:13.849Z,10.62
2023-05-14T02:17:14.567Z,10.63
2023-05-14T02:18:15.283Z,10.62
2023-05-14T02:19:16.026Z,10.60
2023-05-14T02:20:16.755Z,10.58
2023-05-14T02:21:17.483Z,10.63
2023-05-14T02:22:18.201Z,10.57
2023-05-14T02:23:22.028Z,10.57
2023-05-14T02:24:19.901Z,10.57
2023-05-14T02:25:20.649Z,10.57
2023-05-14T02:26:21.099Z,10.60
2023-05-14T02:27:21.818Z,10.57
2023-05-14T02:28:22.534Z,10.57
2023-05-14T02:29:23.229Z,10.55
2023-05-14T02:30:24.154Z,10.54
2023-05-14T02:31:25.093Z,10.52
2023-05-14T02:32:25.830Z,10.52
2023-05-14T02:33:26.579Z,10.52
2023-05-14T02:34:27.305Z,10.54
2023-05-14T02:35:28.033Z,10.52
2023-05-14T02:36:28.732Z,10.55
2023-05-14T02:37:29.457Z,10.52
2023-05-14T02:38:30.154Z,10.51
2023-05-14T02:39:30.876Z,10.54
2023-05-14T02:40:31.631Z,10.54
2023-05-14T02:41:32.347Z,10.54
2023-05-14T02:42:33.104Z,10.54
2023-05-14T02:43:33.818Z,10.51
2023-05-14T02:44:34.561Z,10.52
2023-05-14T02:45:35.305Z,10.52
2023-05-14T02:46:36.056Z,10.54
2023-05-14T02:47:38.153Z,10.54
2023-05-14T02:48:37.325Z,10.51
2023-05-14T02:49:38.042Z,10.52
2023-05-14T02:50:38.741Z,10.51
2023-05-14T02:51:39.435Z,10.49
2023-05-14T02:52:40.146Z,10.47
2023-05-14T02:53:40.976Z,10.47
2023-05-14T02:54:41.673Z,10.49
2023-05-14T02:55:42.376Z,10.43
2023-05-14T02:56:43.100Z,10.44
2023-05-14T02:57:43.791Z,10.43
2023-05-14T02:58:44.498Z,10.42
2023-05-14T02:59:45.244Z,10.39
2023-05-14T03:00:46.242Z,10.39
2023-05-14T03:01:46.766Z,10.38
2023-05-14T03:02:47.453Z,10.35
2023-05-14T03:03:48.190Z,10.32
2023-05-14T03:04:48.845Z,10.29
2023-05-14T03:05:49.574Z,10.31
2023-05-14T03:06:50.277Z,10.28
2023-05-14T03:07:50.989Z,10.24
2023-05-14T03:08:51.696Z,10.26
2023-05-14T03:09:52.389Z,10.25
2023-05-14T03:10:53.087Z,10.20
2023-05-14T03:11:53.817Z,10.22
2023-05-14T03:12:54.529Z,10.20
2023-05-14T03:13:55.238Z,10.17
2023-05-14T03:14:55.943Z,10.17
2023-05-14T03:15:56.636Z,10.18
2023-05-14T03:16:57.404Z,10.16
2023-05-14T03:17:58.220Z,10.16
2023-05-14T03:18:59.089Z,10.17
2023-05-14T03:19:59.785Z,10.16
2023-05-14T03:21:00.502Z,10.14
2023-05-14T03:22:01.249Z,10.14
2023-05-14T03:23:01.939Z,10.16
2023-05-14T03:24:02.645Z,10.14
2023-05-14T03:25:03.367Z,10.14
2023-05-14T03:26:04.062Z,10.16
2023-05-14T03:27:04.802Z,10.16
2023-05-14T03:28:05.538Z,10.14
2023-05-14T03:29:06.228Z,10.13
2023-05-14T03:30:06.925Z,10.13
2023-05-14T03:31:07.769Z,10.13
2023-05-14T03:32:08.500Z,10.11
2023-05-14T03:33:09.204Z,10.11
2023-05-14T03:34:09.902Z,10.11
2023-05-14T03:35:10.614Z,10.11
2023-05-14T03:36:11.336Z,10.13
2023-05-14T03:37:12.044Z,10.13
2023-05-14T03:38:12.768Z,10.13
2023-05-14T03:39:13.457Z,10.14
2023-05-14T03:40:14.176Z,10.14
2023-05-14T03:41:14.905Z,10.14
2023-05-14T03:42:15.613Z,10.16
2023-05-14T03:43:16.310Z,10.16
2023-05-14T03:44:17.019Z,10.17
2023-05-14T03:45:17.773Z,10.20
2023-05-14T03:46:18.487Z,10.18
2023-05-14T03:47:19.200Z,10.17
2023-05-14T03:48:20.131Z,10.16
2023-05-14T03:49:20.902Z,10.17
2023-05-14T03:50:21.848Z,10.17
2023-05-14T03:51:22.657Z,10.14
2023-05-14T03:52:23.345Z,10.16
2023-05-14T03:53:24.087Z,10.16
2023-05-14T03:54:24.864Z,10.11
2023-05-14T03:55:25.617Z,10.16
2023-05-14T03:56:26.326Z,10.11
2023-05-14T03:57:27.016Z,10.14
2023-05-14T03:58:28.518Z,10.10
2023-05-14T03:59:28.633Z,10.10
2023-05-14T04:00:29.360Z,10.09
2023-05-14T04:01:30.081Z,10.07
2023-05-14T04:02:30.842Z,10.06
2023-05-14T04:03:31.872Z,10.04
2023-05-14T04:04:32.365Z,10.01
2023-05-14T04:05:33.078Z,9.99
2023-05-14T04:06:33.786Z,9.98
2023-05-14T04:07:34.511Z,9.99
2023-05-14T04:08:35.244Z,9.99
2023-05-14T04:09:35.931Z,10.01
2023-05-14T04:10:36.677Z,9.99
2023-05-14T04:11:37.337Z,9.99
2023-05-14T04:12:38.022Z,9.98
2023-05-14T04:13:38.788Z,9.98
2023-05-14T04:14:39.493Z,9.96
2023-05-14T04:15:40.191Z,9.95
2023-05-14T04:16:40.949Z,9.93
2023-05-14T04:17:41.679Z,9.93
2023-05-14T04:18:42.431Z,9.92
2023-05-14T04:19:43.113Z,9.93
2023-05-14T04:20:43.797Z,9.92
2023-05-14T04:21:44.504Z,9.91
2023-05-14T04:22:45.203Z,9.91
2023-05-14T04:23:45.904Z,9.91
2023-05-14T04:24:46.627Z,9.92
2023-05-14T04:25:47.314Z,9.93
2023-05-14T04:26:48.013Z,9.91
2023-05-14T04:27:48.710Z,9.92
2023-05-14T04:28:49.400Z,9.93
2023-05-14T04:29:50.097Z,9.92
2023-05-14T04:30:50.782Z,9.92
2023-05-14T04:31:51.600Z,9.93
2023-05-14T04:32:52.404Z,9.92
2023-05-14T04:33:53.158Z,9.93
2023-05-14T04:34:53.835Z,9.95
2023-05-14T04:35:54.531Z,9.93
2023-05-14T04:36:55.278Z,9.95
2023-05-14T04:37:55.948Z,9.95
2023-05-14T04:38:56.638Z,9.95
2023-05-14T04:39:57.360Z,9.96
2023-05-14T04:40:58.024Z,9.98
2023-05-14T04:41:58.723Z,9.99
2023-05-14T04:42:59.411Z,9.99
2023-05-14T04:44:00.129Z,10.01
2023-05-14T04:45:00.811Z,10.02
2023-05-14T04:46:01.579Z,10.02
2023-05-14T04:47:02.305Z,10.04
2023-05-14T04:48:03.092Z,10.07
2023-05-14T04:49:03.786Z,10.06
2023-05-14T04:50:04.524Z,10.04
2023-05-14T04:51:07.121Z,10.07
2023-05-14T04:52:06.216Z,10.07
2023-05-14T04:53:06.918Z,10.10
2023-05-14T04:54:07.725Z,10.10
2023-05-14T04:55:08.492Z,10.09
2023-05-14T04:56:09.198Z,10.09
2023-05-14T04:57:09.888Z,10.09
2023-05-14T04:58:10.603Z,10.11
2023-05-14T04:59:11.314Z,10.11
2023-05-14T05:00:12.025Z,10.11
2023-05-14T05:01:12.791Z,10.13
2023-05-14T05:02:13.527Z,10.13
2023-05-14T05:03:14.332Z,10.14
2023-05-14T05:04:15.182Z,10.14
2023-05-14T05:05:15.964Z,10.14
2023-05-14T05:06:16.689Z,10.16
2023-05-14T05:07:17.383Z,10.16
2023-05-14T05:08:18.104Z,10.20
2023-05-14T05:09:18.824Z,10.17
2023-05-14T05:10:19.540Z,10.20
2023-05-14T05:11:20.240Z,10.18
2023-05-14T05:12:20.970Z,10.22
2023-05-14T05:13:21.685Z,10.24
2023-05-14T05:14:22.410Z,10.22
2023-05-14T05:15:25.236Z,10.20
2023-05-14T05:16:23.740Z,10.24
2023-05-14T05:17:24.444Z,10.24
2023-05-14T05:18:25.163Z,10.25
2023-05-14T05:19:35.668Z,10.24
2023-05-14T05:20:26.920Z,10.29
2023-05-14T05:21:27.642Z,10.26
2023-05-14T05:22:28.380Z,10.29
2023-05-14T05:23:29.131Z,10.32
2023-05-14T05:24:29.867Z,10.29
2023-05-14T05:25:30.586Z,10.32
2023-05-14T05:26:31.288Z,10.32
2023-05-14T05:27:32.001Z,10.34
2023-05-14T05:28:32.740Z,10.34
2023-05-14T05:29:33.561Z,10.38
2023-05-14T05:30:34.253Z,10.36
2023-05-14T05:31:35.028Z,10.36
2023-05-14T05:32:35.751Z,10.35
2023-05-14T05:33:36.485Z,10.39
2023-05-14T05:34:37.180Z,10.42
2023-05-14T05:35:37.889Z,10.43
2023-05-14T05:36:38.581Z,10.44
2023-05-14T05:37:39.304Z,10.44
2023-05-14T05:38:40.048Z,10.47
2023-05-14T05:39:40.753Z,10.49
2023-05-14T05:40:41.562Z,10.51
2023-05-14T05:41:42.268Z,10.49
2023-05-14T05:42:43.018Z,10.52
2023-05-14T05:43:43.740Z,10.51
2023-05-14T05:44:44.451Z,10.54
2023-05-14T05:45:45.141Z,10.55
2023-05-14T05:46:45.880Z,10.57
2023-05-14T05:47:46.722Z,10.58
2023-05-14T05:48:47.387Z,10.60
2023-05-14T05:49:48.097Z,10.63
2023-05-14T05:50:48.797Z,10.65
2023-05-14T05:51:49.534Z,10.68
2023-05-14T05:52:50.223Z,10.68
2023-05-14T05:53:50.926Z,10.69
2023-05-14T05:54:51.640Z,10.72
2023-05-14T05:55:52.339Z,10.72
2023-05-14T05:56:53.078Z,10.73
2023-05-14T05:57:53.825Z,10.73
2023-05-14T05:58:54.511Z,10.75
2023-05-14T05:59:55.216Z,10.75
2023-05-14T06:00:55.943Z,10.76
2023-05-14T06:01:56.679Z,10.76
2023-05-14T06:02:57.384Z,10.81
2023-05-14T06:03:58.224Z,10.83
2023-05-14T06:04:58.935Z,10.84
2023-05-14T06:05:59.624Z,10.86
2023-05-14T06:07:00.453Z,10.86
2023-05-14T06:08:01.166Z,10.88
2023-05-14T06:09:01.868Z,10.90
2023-05-14T06:10:02.560Z,10.90
2023-05-14T06:11:03.290Z,10.93
2023-05-14T06:12:04.022Z,10.93
2023-05-14T06:13:04.684Z,10.95
2023-05-14T06:14:05.387Z,10.94
2023-05-14T06:15:06.089Z,10.95
2023-05-14T06:16:06.846Z,11.01
2023-05-14T06:17:07.584Z,11.02
2023-05-14T06:18:08.321Z,11.03
2023-05-14T06:19:09.151Z,11.03
2023-05-14T06:20:09.888Z,11.03
2023-05-14T06:21:10.584Z,11.05
2023-05-14T06:22:11.280Z,11.06
2023-05-14T06:23:12.005Z,11.06
2023-05-14T06:24:12.720Z,11.12
2023-05-14T06:25:13.463Z,11.11
2023-05-14T06:26:14.188Z,11.16
2023-05-14T06:27:14.883Z,11.12
2023-05-14T06:28:15.584Z,11.17
2023-05-14T06:29:16.301Z,11.20
2023-05-14T06:30:17.072Z,11.20
2023-05-14T06:31:17.810Z,11.21
2023-05-14T06:32:18.640Z,11.24
2023-05-14T06:33:20.617Z,11.26
2023-05-14T06:34:20.206Z,11.27
2023-05-14T06:35:20.946Z,11.33
2023-05-14T06:36:21.678Z,11.33
2023-05-14T06:37:22.401Z,11.38
2023-05-14T06:38:23.177Z,11.41
2023-05-14T06:39:23.908Z,11.44
2023-05-14T06:40:24.809Z,11.44
2023-05-14T06:41:25.678Z,11.44
2023-05-14T06:42:26.412Z,11.49
2023-05-14T06:43:27.143Z,11.53
2023-05-14T06:44:27.883Z,11.56
2023-05-14T06:45:28.571Z,11.56
2023-05-14T06:46:29.283Z,11.62
2023-05-14T06:47:30.054Z,11.62
2023-05-14T06:48:30.815Z,11.64
2023-05-14T06:49:31.534Z,11.67
2023-05-14T06:50:32.268Z,11.69
2023-05-14T06:51:32.984Z,11.75
2023-05-14T06:52:33.677Z,11.72
2023-05-14T06:53:34.445Z,11.75
2023-05-14T06:54:35.130Z,11.78
2023-05-14T06:55:35.830Z,11.78
2023-05-14T06:56:36.573Z,11.85
2023-05-14T06:57:38.626Z,11.88
2023-05-14T06:58:38.304Z,11.93
2023-05-14T06:59:39.012Z,11.97
2023-05-14T07:00:39.728Z,11.98
2023-05-14T07:01:40.459Z,12.01
2023-05-14T07:02:41.270Z,12.04
2023-05-14T07:03:41.980Z,12.07
2023-05-14T07:04:42.709Z,12.07
2023-05-14T07:05:43.400Z,12.11
2023-05-14T07:06:44.145Z,12.15
2023-05-14T07:07:44.889Z,12.15
2023-05-14T07:08:45.601Z,12.18
2023-05-14T07:09:46.294Z,12.23
2023-05-14T07:10:47.087Z,12.22
2023-05-14T07:11:47.816Z,12.23
2023-05-14T07:12:48.522Z,12.25
2023-05-14T07:13:49.280Z,12.30
2023-05-14T07:14:49.982Z,12.31
2023-05-14T07:15:50.731Z,12.37
2023-05-14T07:16:51.490Z,12.38
2023-05-14T07:17:52.292Z,12.43
2023-05-14T07:18:53.025Z,12.44
2023-05-14T07:19:53.747Z,12.49
2023-05-14T07:20:54.461Z,12.52
2023-05-14T07:21:55.198Z,12.56
2023-05-14T07:22:55.905Z,12.58
2023-05-14T07:23:56.601Z,12.63
2023-05-14T07:24:57.307Z,12.70
2023-05-14T07:25:58.021Z,12.70
2023-05-14T07:26:58.807Z,12.73
2023-05-14T07:27:59.516Z,12.76
2023-05-14T07:29:00.224Z,12.79
2023-05-14T07:30:00.949Z,12.85
2023-05-14T07:31:01.697Z,12.85
2023-05-14T07:32:02.514Z,12.91
2023-05-14T07:33:03.299Z,12.94
2023-05-14T07:34:03.984Z,12.98
2023-05-14T07:35:04.820Z,13.04
2023-05-14T07:36:05.514Z,13.09
2023-05-14T07:37:06.218Z,13.10
2023-05-14T07:38:06.948Z,13.16
2023-05-14T07:39:07.681Z,13.19
2023-05-14T07:40:08.417Z,13.22
2023-05-14T07:41:09.171Z,13.29
2023-05-14T07:42:09.890Z,13.35
2023-05-14T07:43:10.608Z,13.38
2023-05-14T07:44:11.364Z,13.47
2023-05-14T07:45:12.086Z,13.51
2023-05-14T07:46:12.802Z,13.54
2023-05-14T07:47:13.548Z,13.61
2023-05-14T07:48:14.455Z,13.66
2023-05-14T07:49:15.207Z,13.68
2023-05-14T07:50:15.956Z,13.72
2023-05-14T07:51:16.685Z,13.79
2023-05-14T07:52:17.359Z,13.81
2023-05-14T07:53:18.075Z,13.90
2023-05-14T07:54:18.816Z,13.90
2023-05-14T07:55:19.524Z,13.96
2023-05-14T07:56:20.226Z,14.01
2023-05-14T07:57:20.907Z,14.08
2023-05-14T07:58:21.665Z,14.11
2023-05-14T07:59:22.383Z,14.19
2023-05-14T08:00:23.395Z,14.26
2023-05-14T08:01:23.651Z,14.30
2023-05-14T08:02:24.454Z,14.38
2023-05-14T08:03:25.349Z,14.42
2023-05-14T08:04:26.185Z,14.45
2023-05-14T08:05:27.066Z,14.53
2023-05-14T08:06:27.764Z,14.56
2023-05-14T08:07:28.491Z,14.61
2023-05-14T08:08:29.211Z,14.64
2023-05-14T08:09:29.896Z,14.74
2023-05-14T08:10:30.734Z,14.80
2023-05-14T08:11:31.546Z,14.86
2023-05-14T08:12:32.304Z,14.94
2023-05-14T08:13:33.078Z,15.00
2023-05-14T08:14:33.836Z,15.04
2023-05-14T08:15:34.536Z,15.11
2023-05-14T08:16:35.306Z,15.15
2023-05-14T08:17:36.067Z,15.22
2023-05-14T08:18:36.821Z,15.31
2023-05-14T08:19:37.505Z,15.35
2023-05-14T08:21:35.163Z,15.52
2023-05-14T08:22:37.700Z,15.60
2023-05-14T08:23:37.794Z,15.68
2023-05-14T08:24:38.496Z,15.77
2023-05-14T08:25:39.199Z,15.81
2023-05-14T08:26:39.924Z,15.85
2023-05-14T08:27:40.625Z,15.95
2023-05-14T08:28:41.293Z,16.01
2023-05-14T08:29:42.020Z,16.08
2023-05-14T08:30:42.778Z,16.17
2023-05-14T08:31:43.493Z,16.27
2023-05-14T08:32:44.248Z,16.37
2023-05-14T08:33:44.938Z,16.45
2023-05-14T08:34:45.640Z,16.52
2023-05-14T08:35:46.409Z,16.63
2023-05-14T08:36:47.130Z,16.69
2023-05-14T08:37:47.836Z,16.70
2023-05-14T08:38:48.524Z,16.75
2023-05-14T08:39:49.236Z,16.81
2023-05-14T08:40:49.958Z,16.96
2023-05-14T08:41:50.668Z,16.99
2023-05-14T08:42:51.374Z,17.03
2023-05-14T08:43:52.080Z,17.10
2023-05-14T08:44:52.813Z,17.24
2023-05-14T08:45:53.539Z,17.28
2023-05-14T08:46:54.271Z,17.33
2023-05-14T08:47:55.066Z,17.43
2023-05-14T08:48:55.835Z,17.46
2023-05-14T08:49:56.553Z,17.51
2023-05-14T08:50:57.308Z,17.58
2023-05-14T08:51:58.004Z,17.60
2023-05-14T08:52:58.759Z,17.63
2023-05-14T08:53:59.463Z,17.66
2023-05-14T08:55:00.214Z,17.73
2023-05-14T08:56:00.909Z,17.83
2023-05-14T08:57:01.600Z,17.89
2023-05-14T08:58:02.296Z,17.96
2023-05-14T08:59:03.033Z,18.07
2023-05-14T09:00:03.772Z,18.17
2023-05-14T09:01:04.472Z,18.19
2023-05-14T09:02:05.208Z,18.28
2023-05-14T09:03:06.094Z,18.34
2023-05-14T09:04:06.949Z,18.38
2023-05-14T09:05:07.772Z,18.44
2023-05-14T09:06:08.481Z,18.47
2023-05-14T19:14:42.246Z,16.42
2023-05-14T19:15:43.012Z,16.37
2023-05-14T19:16:43.735Z,16.37
2023-05-14T19:17:44.607Z,16.40
2023-05-14T19:18:45.399Z,16.36
2023-05-14T19:19:46.173Z,16.33
2023-05-14T19:20:47.144Z,16.33
2023-05-14T19:21:48.352Z,16.36
2023-05-14T19:22:48.565Z,16.30
2023-05-14T19:23:49.375Z,16.30
2023-05-14T19:25:50.801Z,16.29
2023-05-14T19:26:51.739Z,16.25
2023-05-14T19:27:52.531Z,16.25
2023-05-14T19:28:59.296Z,16.27
2023-05-14T19:29:54.215Z,16.23
2023-05-14T19:30:54.945Z,16.25
2023-05-14T19:31:55.734Z,16.27
2023-05-14T19:32:56.601Z,16.26
2023-05-14T19:33:57.283Z,16.23
2023-05-14T19:34:58.021Z,16.22
2023-05-14T19:35:58.756Z,16.22
2023-05-14T19:36:59.486Z,16.17
2023-05-14T19:38:00.201Z,16.18
2023-05-14T19:39:00.991Z,16.17
2023-05-14T19:40:01.723Z,16.16
2023-05-14T19:41:02.434Z,16.23
2023-05-14T19:42:03.165Z,16.25
2023-05-14T19:43:03.848Z,16.17
2023-05-14T19:44:04.609Z,16.22
2023-05-14T19:45:05.358Z,16.17
2023-05-14T19:46:06.575Z,16.26
2023-05-14T19:47:07.524Z,16.25
2023-05-14T19:48:07.926Z,16.32
2023-05-14T19:49:09.237Z,16.30
2023-05-14T19:50:09.372Z,16.29
2023-05-14T19:51:10.072Z,16.34
2023-05-14T19:52:10.779Z,16.34
2023-05-14T19:53:11.481Z,16.34
2023-05-14T19:54:12.275Z,16.40
2023-05-14T19:55:13.390Z,16.40
2023-05-14T19:56:13.529Z,16.36
2023-05-14T19:57:14.926Z,16.37
2023-05-14T19:58:15.028Z,16.41
2023-05-14T19:59:16.027Z,16.44
2023-05-14T20:00:16.738Z,16.45
2023-05-14T20:01:17.571Z,16.44
2023-05-14T20:02:18.591Z,16.44
2023-05-14T20:03:19.461Z,16.45
2023-05-14T20:04:20.228Z,16.47
2023-05-14T20:05:20.937Z,16.47
2023-05-14T20:06:21.658Z,16.45
2023-05-14T20:07:22.356Z,16.40
2023-05-14T20:08:23.083Z,16.41
2023-05-14T20:09:23.813Z,16.42
2023-05-14T20:10:24.768Z,16.41
2023-05-14T20:11:25.524Z,16.42
2023-05-14T20:12:26.250Z,16.41
2023-05-14T20:13:26.961Z,16.41
2023-05-14T20:14:27.735Z,16.36
2023-05-14T20:15:28.438Z,16.36
2023-05-14T20:16:29.190Z,16.33
2023-05-14T20:17:29.923Z,16.36
2023-05-14T20:18:30.675Z,16.33
2023-05-14T20:19:31.413Z,16.34
2023-05-14T20:20:33.412Z,16.32
2023-05-14T20:21:32.791Z,16.32
2023-05-14T20:22:33.517Z,16.32
2023-05-14T20:23:34.208Z,16.30
2023-05-14T20:24:34.942Z,16.30
2023-05-14T20:25:35.642Z,16.26
2023-05-14T20:26:36.396Z,16.29
2023-05-14T20:27:37.140Z,16.27
2023-05-14T20:28:37.883Z,16.27
2023-05-14T20:29:38.595Z,16.27
2023-05-14T20:30:39.311Z,16.26
2023-05-14T20:31:40.061Z,16.18
2023-05-14T20:32:41.227Z,16.23
2023-05-14T20:33:41.362Z,16.18
2023-05-14T20:34:42.057Z,16.18
2023-05-14T20:35:42.788Z,16.17
2023-05-14T20:36:43.509Z,16.18
2023-05-14T20:37:44.211Z,16.11
2023-05-14T20:38:44.919Z,16.16
2023-05-14T20:39:45.676Z,16.14
2023-05-14T20:40:46.669Z,16.10
2023-05-14T20:41:47.400Z,16.10
2023-05-14T20:42:48.134Z,16.10
2023-05-14T20:43:48.814Z,16.06
2023-05-14T20:44:49.526Z,16.06
2023-05-14T20:45:50.274Z,16.03
2023-05-14T20:46:50.997Z,15.99
2023-05-14T20:47:51.740Z,15.99
2023-05-14T20:48:52.454Z,15.92
2023-05-14T20:49:53.190Z,15.91
2023-05-14T20:50:53.902Z,15.91
2023-05-14T20:51:54.599Z,15.85
2023-05-14T20:52:55.378Z,15.84
2023-05-14T20:53:56.062Z,15.78
2023-05-14T20:54:58.181Z,15.76
2023-05-14T20:55:57.753Z,15.71
2023-05-14T20:56:59.168Z,15.73
2023-05-14T20:57:59.314Z,15.68
2023-05-14T20:59:00.778Z,15.70
2023-05-14T21:00:00.914Z,15.67
2023-05-14T21:01:01.634Z,15.66
2023-05-14T21:02:02.386Z,15.62
2023-05-14T21:03:03.254Z,15.68
2023-05-14T21:04:04.104Z,15.64
2023-05-14T21:05:04.897Z,15.64
2023-05-14T21:06:05.632Z,15.59
2023-05-14T21:07:06.353Z,15.66
2023-05-14T21:08:07.044Z,15.58
2023-05-14T21:09:07.810Z,15.64
2023-05-14T21:10:08.617Z,15.64
2023-05-14T21:11:09.320Z,15.64
2023-05-14T21:12:10.097Z,15.66
2023-05-14T21:13:10.866Z,15.67
2023-05-14T21:14:11.627Z,15.67
2023-05-14T21:15:12.419Z,15.68
2023-05-14T21:16:13.192Z,15.64
2023-05-14T21:17:14.862Z,15.68
2023-05-14T21:18:14.433Z,15.66
2023-05-14T21:19:15.564Z,15.64
2023-05-14T21:20:16.763Z,15.64
2023-05-14T21:21:16.299Z,15.60
2023-05-14T21:22:17.014Z,15.55
2023-05-14T21:23:17.780Z,15.53
2023-05-14T21:24:18.524Z,15.58
2023-05-14T21:25:19.225Z,15.55
2023-05-14T21:26:19.931Z,15.56
2023-05-14T21:27:20.662Z,15.56
2023-05-14T21:28:21.466Z,15.55
2023-05-14T21:29:22.166Z,15.53
2023-05-14T21:30:22.859Z,15.52
2023-05-14T21:31:23.615Z,15.51
2023-05-14T21:32:24.442Z,15.52
2023-05-14T21:33:25.173Z,15.52
2023-05-14T21:34:25.859Z,15.52
2023-05-14T21:35:26.723Z,15.48
2023-05-14T21:36:27.066Z,15.46
2023-05-14T21:37:27.802Z,15.41
2023-05-14T21:38:28.556Z,15.43
2023-05-14T21:39:29.256Z,15.37
2023-05-14T21:40:29.958Z,15.35
2023-05-14T21:41:30.663Z,15.31
2023-05-14T21:42:31.384Z,15.28
2023-05-14T21:43:32.107Z,15.27
2023-05-14T21:44:32.805Z,15.27
2023-05-14T21:45:33.757Z,15.23
2023-05-14T21:46:34.473Z,15.25
2023-05-14T21:47:35.215Z,15.25
2023-05-14T21:48:36.048Z,15.23
2023-05-14T21:49:36.785Z,15.20
2023-05-14T21:50:37.656Z,15.25
2023-05-14T21:51:38.374Z,15.27
2023-05-14T21:52:39.090Z,15.23
2023-05-14T21:53:39.832Z,15.28
2023-05-14T21:54:40.532Z,15.27
2023-05-14T21:55:41.290Z,15.27
2023-05-14T21:56:41.989Z,15.25
2023-05-14T21:57:42.720Z,15.22
2023-05-14T21:58:43.433Z,15.22
